createdAt,value
2023-04-09T00:01:05.100Z,12.40
2023-04-09T00:03:35.390Z,13.17
2023-04-09T00:06:03.802Z,12.10
2023-04-09T00:08:32.198Z,11.67
2023-04-09T00:11:00.667Z,12.50
2023-04-09T00:15:59.756Z,12.90
2023-04-09T00:18:27.871Z,11.93
2023-04-09T00:20:57.296Z,12.00
2023-04-09T00:23:25.450Z,13.43
2023-04-09T00:25:53.498Z,11.47
2023-04-09T00:28:21.895Z,11.03
2023-04-09T00:30:49.959Z,11.47
2023-04-09T00:33:17.902Z,12.90
2023-04-09T00:35:46.065Z,11.23
2023-04-09T00:38:16.402Z,13.60
2023-04-09T00:40:44.550Z,13.33
2023-04-09T00:43:12.584Z,12.10
2023-04-09T00:45:40.708Z,11.30
2023-04-09T00:48:08.764Z,11.67
2023-04-09T00:50:37.215Z,13.90
2023-04-09T00:53:06.906Z,12.70
2023-04-09T00:55:37.361Z,13.00
2023-04-09T00:58:05.630Z,12.57
2023-04-09T01:00:33.817Z,13.70
2023-04-09T01:03:02.063Z,11.97
2023-04-09T01:05:36.469Z,11.53
2023-04-09T01:08:13.834Z,13.07
2023-04-09T01:10:48.127Z,16.47
2023-04-09T01:13:21.059Z,13.83
2023-04-09T01:15:52.817Z,14.83
2023-04-09T01:18:26.186Z,14.33
2023-04-09T01:21:00.317Z,13.30
2023-04-09T01:23:38.429Z,14.30
2023-04-09T01:26:19.499Z,13.90
2023-04-09T01:28:54.493Z,14.80
2023-04-09T01:31:29.323Z,13.07
2023-04-09T01:33:58.887Z,13.60
2023-04-09T01:36:28.030Z,12.77
2023-04-09T01:38:58.003Z,14.73
2023-04-09T01:41:27.340Z,13.90
2023-04-09T01:43:57.688Z,12.23
2023-04-09T01:46:27.240Z,14.20
2023-04-09T01:48:56.906Z,14.10
2023-04-09T01:51:26.547Z,14.97
2023-04-09T01:53:54.672Z,13.97
2023-04-09T01:56:22.782Z,14.50
2023-04-09T01:58:52.456Z,13.87
2023-04-09T02:01:27.307Z,11.93
2023-04-09T02:03:59.516Z,14.90
2023-04-09T02:06:34.071Z,14.00
2023-04-09T02:09:04.007Z,12.63
2023-04-09T02:11:34.741Z,14.00
2023-04-09T02:14:04.700Z,13.87
2023-04-09T02:16:37.261Z,14.23
2023-04-09T02:19:05.310Z,16.47
2023-04-09T02:21:33.492Z,14.50
2023-04-09T02:24:01.508Z,16.40
2023-04-09T02:26:29.546Z,13.70
2023-04-09T02:28:57.579Z,14.43
2023-04-09T02:31:25.618Z,13.00
2023-04-09T02:33:55.201Z,14.43
2023-04-09T02:36:23.306Z,14.00
2023-04-09T02:38:51.514Z,12.80
2023-04-09T02:41:19.836Z,15.43
2023-04-09T02:43:48.082Z,13.43
2023-04-09T02:46:16.214Z,15.13
2023-04-09T02:48:44.293Z,15.83
2023-04-09T02:51:13.698Z,14.73
2023-04-09T02:53:41.808Z,14.53
2023-04-09T02:56:09.816Z,15.87
2023-04-09T02:58:37.890Z,16.00
2023-04-09T03:01:06.066Z,14.73
2023-04-09T03:03:34.261Z,14.73
2023-04-09T03:06:02.352Z,18.70
2023-04-09T03:08:31.715Z,15.50
2023-04-09T03:10:59.757Z,14.17
2023-04-09T03:13:28.845Z,14.90
2023-04-09T03:15:56.920Z,17.10
2023-04-09T03:18:24.955Z,14.07
2023-04-09T03:20:53.039Z,16.03
2023-04-09T03:23:21.100Z,14.07
2023-04-09T03:25:50.453Z,14.33
2023-04-09T03:28:18.449Z,17.13
2023-04-09T03:30:46.475Z,14.43
2023-04-09T03:33:14.446Z,14.33
2023-04-09T03:35:43.286Z,16.30
2023-04-09T03:38:11.314Z,15.77
2023-04-09T03:40:39.292Z,14.70
2023-04-09T03:43:08.672Z,14.53
2023-04-09T03:45:36.707Z,15.10
2023-04-09T03:48:04.900Z,14.40
2023-04-09T03:50:32.895Z,12.43
2023-04-09T03:53:00.858Z,11.43
2023-04-09T03:55:28.833Z,13.70
2023-04-09T03:57:56.773Z,12.90
2023-04-09T04:00:26.057Z,13.80
2023-04-09T04:02:54.362Z,13.60
2023-04-09T04:05:24.890Z,14.00
2023-04-09T04:07:52.971Z,15.03
2023-04-09T04:10:21.084Z,14.73
2023-04-09T04:12:49.114Z,18.13
2023-04-09T04:15:17.317Z,14.50
2023-04-09T04:17:46.865Z,15.73
2023-04-09T04:20:15.054Z,15.90
2023-04-09T04:22:43.036Z,14.50
2023-04-09T04:25:11.794Z,14.90
2023-04-09T04:27:42.688Z,15.23
2023-04-09T04:30:11.118Z,16.33
2023-04-09T04:32:39.169Z,15.07
2023-04-09T04:35:09.581Z,15.47
2023-04-09T04:37:37.642Z,14.50
2023-04-09T04:40:06.472Z,16.40
2023-04-09T04:42:34.534Z,14.43
2023-04-09T04:45:02.626Z,14.60
2023-04-09T04:47:30.692Z,14.77
2023-04-09T04:49:58.731Z,15.73
2023-04-09T04:52:28.061Z,15.97
2023-04-09T04:54:56.099Z,14.77
2023-04-09T04:57:24.093Z,14.63
2023-04-09T04:59:52.244Z,14.93
2023-04-09T05:02:20.369Z,13.83
2023-04-09T05:04:48.560Z,17.63
2023-04-09T05:07:16.622Z,13.93
2023-04-09T05:09:46.228Z,16.67
2023-04-09T05:12:15.149Z,15.73
2023-04-09T05:14:43.303Z,14.87
2023-04-09T05:17:11.260Z,14.63
2023-04-09T05:19:39.301Z,13.90
2023-04-09T05:22:07.456Z,14.20
2023-04-09T05:24:35.436Z,15.70
2023-04-09T05:27:04.874Z,14.90
2023-04-09T05:29:33.009Z,15.03
2023-04-09T05:32:01.258Z,14.83
2023-04-09T05:34:29.379Z,12.73
2023-04-09T05:36:57.422Z,15.43
2023-04-09T05:39:25.459Z,14.03
2023-04-09T05:41:53.517Z,13.13
2023-04-09T05:44:22.950Z,14.80
2023-04-09T05:46:50.995Z,14.77
2023-04-09T05:49:19.102Z,13.90
2023-04-09T05:51:47.124Z,15.43
2023-04-09T05:54:15.144Z,15.10
2023-04-09T05:56:44.314Z,14.50
2023-04-09T05:59:12.669Z,13.47
2023-04-09T06:01:42.032Z,16.80
2023-04-09T06:04:10.300Z,14.13
2023-04-09T06:06:39.711Z,14.37
2023-04-09T06:09:07.736Z,13.90
2023-04-09T06:11:35.718Z,13.70
2023-04-09T06:14:03.756Z,12.80
2023-04-09T06:16:31.739Z,13.60
2023-04-09T06:19:01.077Z,13.10
2023-04-09T06:21:29.116Z,11.80
2023-04-09T06:23:57.078Z,13.13
2023-04-09T06:26:25.011Z,13.70
2023-04-09T06:28:53.963Z,12.90
2023-04-09T06:31:21.942Z,11.80
2023-04-09T06:33:50.082Z,10.73
2023-04-09T06:36:19.611Z,13.30
2023-04-09T06:38:47.589Z,11.57
2023-04-09T06:41:15.550Z,15.00
2023-04-09T06:43:43.754Z,12.87
2023-04-09T06:46:12.048Z,12.43
2023-04-09T06:48:40.470Z,13.17
2023-04-09T06:51:08.696Z,13.47
2023-04-09T06:53:39.626Z,13.73
2023-04-09T06:56:08.194Z,12.53
2023-04-09T06:58:36.190Z,12.37
2023-04-09T07:01:04.447Z,13.13
2023-04-09T07:03:32.564Z,12.70
2023-04-09T07:06:00.761Z,11.30
2023-04-09T07:08:28.951Z,12.50
2023-04-09T07:10:58.403Z,12.43
2023-04-09T07:16:02.004Z,11.17
2023-04-09T07:18:30.130Z,10.50
2023-04-09T07:20:58.350Z,10.10
2023-04-09T07:23:27.304Z,10.00
2023-04-09T07:25:55.686Z,9.60
2023-04-09T07:28:25.063Z,9.20
2023-04-09T07:30:53.494Z,9.83
2023-04-09T07:33:21.590Z,8.73
2023-04-09T07:35:49.666Z,9.50
2023-04-09T07:38:17.734Z,9.77
2023-04-09T07:40:47.404Z,9.33
2023-04-09T07:43:15.630Z,9.63
2023-04-09T07:45:45.887Z,9.17
2023-04-09T07:48:14.113Z,9.30
2023-04-09T07:50:42.378Z,8.30
2023-04-09T07:53:10.665Z,7.43
2023-04-09T07:55:38.793Z,7.93
2023-04-09T07:58:07.296Z,7.60
2023-04-09T08:00:35.388Z,8.50
2023-04-09T08:03:05.081Z,9.30
2023-04-09T08:05:33.297Z,10.03
2023-04-09T08:08:01.235Z,9.43
2023-04-09T08:10:29.239Z,9.13
2023-04-09T08:12:57.308Z,8.90
2023-04-09T08:15:25.606Z,10.30
2023-04-09T08:17:53.595Z,9.63
2023-04-09T08:20:23.193Z,9.27
2023-04-09T08:22:51.487Z,8.27
2023-04-09T08:25:19.741Z,7.90
2023-04-09T08:27:47.753Z,10.70
2023-04-09T08:30:16.972Z,7.17
2023-04-09T08:32:47.150Z,7.33
2023-04-09T08:35:15.963Z,7.17
2023-04-09T08:37:45.565Z,6.57
2023-04-09T08:40:14.018Z,6.73
2023-04-09T08:42:46.089Z,6.87
2023-04-09T08:45:14.898Z,6.23
2023-04-09T08:47:44.570Z,7.23
2023-04-09T08:50:12.643Z,6.33
2023-04-09T08:52:41.473Z,6.43
2023-04-09T08:55:13.328Z,7.00
2023-04-09T08:57:42.320Z,7.30
2023-04-09T09:00:11.177Z,6.47
2023-04-09T09:02:40.169Z,6.93
2023-04-09T09:05:08.848Z,6.40
2023-04-09T09:07:36.898Z,6.67
2023-04-09T09:10:05.188Z,7.60
2023-04-09T09:12:39.499Z,6.97
2023-04-09T09:15:27.256Z,6.17
2023-04-09T09:17:56.772Z,5.97
2023-04-09T09:20:25.377Z,6.63
2023-04-09T09:22:55.622Z,6.30
2023-04-09T09:25:25.525Z,7.13
2023-04-09T09:27:55.783Z,7.40
2023-04-09T09:30:26.205Z,8.03
2023-04-09T09:32:55.220Z,7.57
2023-04-09T09:35:23.562Z,7.40
2023-04-09T09:38:03.792Z,7.57
2023-04-09T09:40:31.962Z,6.83
2023-04-09T09:43:01.357Z,9.67
2023-04-09T09:45:31.432Z,4.90
2023-04-09T09:47:59.615Z,7.33
2023-04-09T09:50:31.674Z,7.00
2023-04-09T09:53:04.728Z,6.50
2023-04-09T09:55:33.512Z,8.13
2023-04-09T09:58:06.164Z,7.40
2023-04-09T10:00:34.815Z,7.27
2023-04-09T10:03:11.767Z,6.97
2023-04-09T10:05:41.788Z,4.60
2023-04-09T10:08:10.585Z,4.70
2023-04-09T10:10:42.098Z,5.47
2023-04-09T10:13:17.733Z,7.57
2023-04-09T10:15:46.875Z,6.50
2023-04-09T10:18:18.110Z,7.13
2023-04-09T10:20:56.614Z,5.10
2023-04-09T10:23:33.641Z,4.70
2023-04-09T10:26:01.787Z,5.03
2023-04-09T10:28:32.082Z,4.83
2023-04-09T10:31:00.722Z,5.50
2023-04-09T10:33:29.410Z,4.40
2023-04-09T10:36:01.790Z,3.77
2023-04-09T10:38:38.446Z,5.47
2023-04-09T10:41:14.915Z,4.50
2023-04-09T10:43:44.777Z,4.47
2023-04-09T10:46:28.930Z,3.37
2023-04-09T10:49:13.688Z,5.07
2023-04-09T10:51:45.077Z,5.10
2023-04-09T10:54:43.528Z,5.57
2023-04-09T10:57:13.729Z,4.40
2023-04-09T10:59:45.111Z,4.50
2023-04-09T11:02:47.058Z,5.93
2023-04-09T11:05:34.747Z,3.37
2023-04-09T11:08:07.346Z,3.70
2023-04-09T11:10:35.724Z,5.00
2023-04-09T11:13:04.618Z,4.50
2023-04-09T11:15:36.546Z,4.97
2023-04-09T11:18:06.920Z,4.90
2023-04-09T11:20:35.860Z,5.00
2023-04-09T11:23:03.945Z,4.93
2023-04-09T11:25:33.351Z,4.40
2023-04-09T11:28:04.290Z,5.20
2023-04-09T11:30:34.868Z,5.00
2023-04-09T11:33:03.577Z,5.50
2023-04-09T11:35:31.814Z,5.77
2023-04-09T11:37:59.977Z,5.97
2023-04-09T11:40:29.619Z,5.07
2023-04-09T11:42:58.143Z,5.17
2023-04-09T11:45:28.534Z,5.13
2023-04-09T11:47:58.727Z,6.40
2023-04-09T11:50:27.270Z,6.40
2023-04-09T11:52:55.476Z,6.23
2023-04-09T11:55:27.503Z,5.17
2023-04-09T11:57:58.663Z,5.40
2023-04-09T12:00:27.144Z,4.80
2023-04-09T12:03:03.542Z,5.03
2023-04-09T12:05:33.840Z,5.27
2023-04-09T12:08:04.941Z,7.17
2023-04-09T12:10:36.096Z,5.00
2023-04-09T12:13:06.494Z,4.30
2023-04-09T12:15:36.136Z,5.20
2023-04-09T12:18:09.114Z,5.00
2023-04-09T12:20:39.605Z,4.80
2023-04-09T12:23:08.819Z,5.07
2023-04-09T12:25:38.448Z,5.13
2023-04-09T12:28:07.358Z,5.33
2023-04-09T12:30:36.047Z,4.67
2023-04-09T12:33:07.630Z,5.20
2023-04-09T12:35:38.122Z,4.83
2023-04-09T12:38:06.672Z,4.73
2023-04-09T12:40:35.866Z,5.30
2023-04-09T12:43:04.100Z,4.63
2023-04-09T12:45:32.869Z,4.70
2023-04-09T12:48:00.931Z,5.00
2023-04-09T12:50:30.719Z,5.43
2023-04-09T12:52:58.690Z,5.07
2023-04-09T12:55:26.743Z,5.33
2023-04-09T12:57:54.919Z,5.43
2023-04-09T13:00:22.913Z,5.67
2023-04-09T13:02:52.658Z,5.07
2023-04-09T13:05:21.359Z,5.00
2023-04-09T13:07:51.383Z,5.40
2023-04-09T13:10:19.555Z,5.07
2023-04-09T13:12:47.555Z,4.47
2023-04-09T13:15:15.602Z,4.93
2023-04-09T13:17:43.667Z,5.10
2023-04-09T13:20:12.172Z,5.00
2023-04-09T13:22:40.208Z,4.77
2023-04-09T13:25:13.235Z,4.90
2023-04-09T13:27:42.445Z,5.70
2023-04-09T13:30:10.850Z,5.03
2023-04-09T13:32:39.353Z,5.07
2023-04-09T13:35:08.948Z,4.93
2023-04-09T13:37:37.125Z,5.10
2023-04-09T13:40:05.688Z,3.70
2023-04-09T13:42:35.117Z,4.63
2023-04-09T13:45:03.154Z,4.57
2023-04-09T13:47:34.500Z,4.17
2023-04-09T13:50:02.588Z,5.60
2023-04-09T13:52:30.969Z,4.37
2023-04-09T13:54:59.049Z,3.93
2023-04-09T13:57:27.310Z,5.50
2023-04-09T13:59:56.743Z,4.60
2023-04-09T14:02:24.910Z,4.80
2023-04-09T14:04:52.992Z,4.90
2023-04-09T14:07:21.106Z,5.23
2023-04-09T14:09:50.731Z,4.27
2023-04-09T14:12:18.945Z,4.50
2023-04-09T14:14:47.077Z,4.03
2023-04-09T14:17:16.436Z,4.27
2023-04-09T14:19:44.427Z,4.33
2023-04-09T14:22:12.524Z,4.10
2023-04-09T14:24:40.859Z,5.77
2023-04-09T14:27:08.949Z,3.87
2023-04-09T14:29:37.009Z,4.57
2023-04-09T14:32:05.077Z,5.43
2023-04-09T14:34:34.482Z,4.93
2023-04-09T14:37:02.654Z,4.47
2023-04-09T14:39:30.778Z,3.90
2023-04-09T14:41:58.776Z,4.80
2023-04-09T14:44:26.951Z,6.93
2023-04-09T14:46:56.237Z,5.07
2023-04-09T14:49:24.390Z,4.57
2023-04-09T14:51:54.546Z,5.10
2023-04-09T14:54:22.549Z,4.40
2023-04-09T14:57:14.518Z,5.23
2023-04-09T14:59:42.599Z,6.27
2023-04-09T15:02:13.073Z,4.50
2023-04-09T15:04:41.273Z,5.17
2023-04-09T15:07:11.172Z,5.80
2023-04-09T15:09:39.321Z,5.27
2023-04-09T15:12:08.903Z,4.63
2023-04-09T15:14:37.266Z,6.30
2023-04-09T15:17:05.365Z,5.17
2023-04-09T15:19:34.224Z,5.73
2023-04-09T15:22:02.428Z,5.10
2023-04-09T15:24:31.839Z,6.20
2023-04-09T15:27:00.023Z,5.80
2023-04-09T15:29:28.324Z,5.57
2023-04-09T15:31:56.575Z,5.63
2023-04-09T15:34:25.815Z,5.03
2023-04-09T15:36:54.216Z,5.03
2023-04-09T15:39:24.391Z,5.27
2023-04-09T15:41:53.859Z,6.23
2023-04-09T15:44:22.156Z,6.97
2023-04-09T15:46:50.866Z,6.67
2023-04-09T15:49:20.622Z,5.70
2023-04-09T15:51:49.334Z,5.33
2023-04-09T15:54:17.455Z,5.30
2023-04-09T15:56:45.582Z,6.40
2023-04-09T15:59:16.452Z,8.17
2023-04-09T16:01:44.624Z,7.20
2023-04-09T16:04:12.798Z,5.90
2023-04-09T16:06:44.627Z,7.30
2023-04-09T16:09:12.641Z,5.40
2023-04-09T16:11:40.730Z,6.43
2023-04-09T16:14:09.275Z,7.33
2023-04-09T16:16:39.369Z,6.73
2023-04-09T16:19:07.457Z,5.40
2023-04-09T16:21:35.535Z,4.77
2023-04-09T16:24:03.830Z,5.10
2023-04-09T16:26:31.989Z,5.40
2023-04-09T16:29:04.036Z,6.57
2023-04-09T16:31:32.099Z,5.27
2023-04-09T16:34:01.702Z,5.40
2023-04-09T16:36:31.402Z,5.00
2023-04-09T16:38:59.382Z,6.53
2023-04-09T16:41:27.402Z,6.63
2023-04-09T16:43:55.504Z,5.63
2023-04-09T16:46:23.652Z,5.53
2023-04-09T16:48:51.880Z,5.80
2023-04-09T16:51:21.531Z,5.23
2023-04-09T16:53:49.606Z,5.20
2023-04-09T16:56:17.656Z,5.87
2023-04-09T16:58:46.548Z,4.87
2023-04-09T17:01:14.701Z,5.27
2023-04-09T17:03:42.958Z,5.90
2023-04-09T17:06:11.077Z,5.40
2023-04-09T17:08:40.524Z,6.83
2023-04-09T17:11:08.647Z,4.77
2023-04-09T17:13:36.858Z,6.50
2023-04-09T17:16:05.537Z,6.73
2023-04-09T17:18:33.586Z,7.53
2023-04-09T17:21:02.738Z,7.67
2023-04-09T17:23:30.835Z,5.50
2023-04-09T17:26:03.770Z,5.57
2023-04-09T17:28:31.841Z,6.67
2023-04-09T17:30:59.968Z,6.60
2023-04-09T17:33:28.252Z,11.37
2023-04-09T17:35:57.671Z,8.27
2023-04-09T17:38:26.931Z,5.80
2023-04-09T17:40:55.030Z,5.73
2023-04-09T17:43:24.375Z,4.90
2023-04-09T17:45:52.469Z,6.17
2023-04-09T17:48:20.605Z,5.43
2023-04-09T17:50:48.744Z,7.83
2023-04-09T17:53:16.798Z,5.43
2023-04-09T17:55:48.179Z,6.27
2023-04-09T17:58:16.542Z,5.13
2023-04-09T18:00:46.096Z,5.37
2023-04-09T18:03:14.459Z,5.40
2023-04-09T18:05:42.949Z,5.70
2023-04-09T18:08:11.407Z,7.40
2023-04-09T18:10:39.675Z,6.90
2023-04-09T18:13:07.750Z,5.97
2023-04-09T18:15:36.164Z,5.43
2023-04-09T18:18:05.652Z,7.80
2023-04-09T18:20:33.745Z,8.00
2023-04-09T18:23:01.806Z,9.70
2023-04-09T18:25:29.829Z,9.57
2023-04-09T18:27:57.860Z,8.60
2023-04-09T18:30:26.834Z,7.23
2023-04-09T18:32:55.046Z,7.70
2023-04-09T18:35:24.588Z,6.50
2023-04-09T18:37:52.576Z,8.60
2023-04-09T18:40:20.784Z,6.70
2023-04-09T18:42:52.821Z,7.10
2023-04-09T18:45:21.063Z,8.50
2023-04-09T18:47:49.201Z,6.30
2023-04-09T18:50:18.612Z,9.20
2023-04-09T18:52:48.241Z,7.50
2023-04-09T18:55:16.812Z,10.20
2023-04-09T18:57:45.087Z,8.80
2023-04-09T19:00:14.015Z,6.10
2023-04-09T19:02:42.698Z,8.50
2023-04-09T19:05:11.321Z,7.03
2023-04-09T19:07:39.843Z,7.00
2023-04-09T19:10:10.896Z,8.30
2023-04-09T19:12:39.600Z,7.03
2023-04-09T19:15:08.611Z,6.23
2023-04-09T19:17:36.785Z,7.33
2023-04-09T19:20:05.356Z,7.03
2023-04-09T19:22:33.451Z,6.10
2023-04-09T19:25:01.732Z,6.83
2023-04-09T19:27:31.479Z,7.53
2023-04-09T19:30:01.105Z,5.43
2023-04-09T19:32:29.177Z,6.40
2023-04-09T19:34:57.343Z,7.93
2023-04-09T19:37:27.879Z,10.77
2023-04-09T19:39:56.290Z,9.90
2023-04-09T19:42:24.774Z,7.50
2023-04-09T19:44:54.145Z,6.90
2023-04-09T19:47:22.227Z,7.73
2023-04-09T19:49:50.318Z,8.27
2023-04-09T19:52:18.367Z,6.33
2023-04-09T19:54:46.478Z,6.87
2023-04-09T19:57:15.134Z,8.00
2023-04-09T19:59:43.106Z,7.47
2023-04-09T20:02:12.671Z,8.70
2023-04-09T20:04:41.275Z,6.70
2023-04-09T20:07:09.286Z,7.27
2023-04-09T20:09:41.321Z,7.60
2023-04-09T20:12:09.860Z,7.37
2023-04-09T20:14:39.414Z,6.90
2023-04-09T20:17:08.847Z,7.77
2023-04-09T20:19:38.557Z,7.87
2023-04-09T20:22:06.566Z,8.53
2023-04-09T20:24:35.313Z,8.40
2023-04-09T20:27:03.818Z,8.20
2023-04-09T20:29:31.923Z,9.20
2023-04-09T20:32:00.042Z,9.60
2023-04-09T20:34:28.132Z,9.20
2023-04-09T20:36:57.636Z,10.57
2023-04-09T20:39:26.892Z,8.83
2023-04-09T20:41:56.487Z,9.40
2023-04-09T20:44:25.746Z,10.20
2023-04-09T20:46:53.818Z,9.03
2023-04-09T20:49:22.531Z,9.83
2023-04-09T20:51:51.840Z,8.00
2023-04-09T20:54:23.064Z,8.80
2023-04-09T20:56:51.322Z,8.13
2023-04-09T20:59:20.048Z,6.87
2023-04-09T21:01:48.462Z,9.90
2023-04-09T21:04:22.559Z,8.50
2023-04-09T21:06:50.709Z,8.57
2023-04-09T21:09:18.768Z,8.53
2023-04-09T21:11:48.185Z,10.30
2023-04-09T21:14:16.354Z,11.20
2023-04-09T21:16:44.497Z,9.00
2023-04-09T21:19:12.599Z,8.77
2023-04-09T21:21:40.860Z,9.60
2023-04-09T21:24:08.910Z,9.47
2023-04-09T21:26:50.336Z,11.53
2023-04-09T21:29:21.914Z,7.47
2023-04-09T21:31:50.010Z,9.53
2023-04-09T21:34:18.016Z,9.70
2023-04-09T21:36:46.177Z,9.47
2023-04-09T21:39:14.248Z,8.30
2023-04-09T21:41:42.253Z,9.27
2023-04-09T21:44:10.280Z,9.00
2023-04-09T21:46:40.687Z,10.83
2023-04-09T21:49:09.019Z,9.90
2023-04-09T21:51:37.541Z,9.33
2023-04-09T21:54:06.717Z,9.23
2023-04-09T21:56:35.520Z,7.73
2023-04-09T21:59:03.955Z,9.93
2023-04-09T22:01:33.414Z,8.70
2023-04-09T22:04:03.002Z,10.00
2023-04-09T22:06:31.108Z,8.50
2023-04-09T22:08:59.980Z,8.50
2023-04-09T22:11:29.027Z,9.07
2023-04-09T22:13:58.147Z,8.60
2023-04-09T22:16:26.810Z,11.70
2023-04-09T22:18:55.510Z,9.10
2023-04-09T22:21:26.468Z,8.97
2023-04-09T22:23:54.604Z,9.67
2023-04-09T22:26:22.652Z,8.73
2023-04-09T22:28:51.549Z,10.50
2023-04-09T22:31:19.931Z,10.63
2023-04-09T22:33:48.126Z,9.67
2023-04-09T22:36:16.305Z,11.30
2023-04-09T22:38:45.708Z,9.37
2023-04-09T22:41:13.737Z,9.70
2023-04-09T22:43:41.766Z,10.37
2023-04-09T22:46:09.888Z,9.53
2023-04-09T22:48:58.903Z,9.40
2023-04-09T22:51:25.965Z,10.67
2023-04-09T22:53:55.537Z,9.83
2023-04-09T22:56:24.322Z,9.37
2023-04-09T22:58:52.659Z,8.97
2023-04-09T23:01:23.703Z,9.33
2023-04-09T23:03:51.933Z,9.47
2023-04-09T23:06:20.707Z,13.00
2023-04-09T23:08:48.731Z,10.93
2023-04-09T23:11:18.222Z,8.97
2023-04-09T23:13:46.329Z,11.00
2023-04-09T23:16:14.607Z,11.00
2023-04-09T23:18:42.664Z,9.80
2023-04-09T23:21:11.657Z,9.77
2023-04-09T23:23:40.239Z,11.37
2023-04-09T23:26:08.461Z,12.10
2023-04-09T23:28:39.170Z,11.60
2023-04-09T23:31:07.424Z,11.37
2023-04-09T23:33:35.499Z,10.93
2023-04-09T23:36:03.525Z,12.20
2023-04-09T23:38:31.629Z,9.53
2023-04-09T23:40:59.670Z,10.80
2023-04-09T23:43:27.783Z,11.47
2023-04-09T23:45:57.118Z,12.13
2023-04-09T23:48:25.160Z,11.27
2023-04-09T23:50:53.224Z,12.30
2023-04-09T23:53:21.306Z,10.80
2023-04-09T23:55:50.104Z,10.63
2023-04-09T23:58:18.901Z,10.70
